sensor_id;sensor_type;location;lat;lon;timestamp;temperature;humidity
1678;DHT22;6034;46.864;15.216;2022-11-15T06:01:27;8.30;99.90
1678;DHT22;6034;46.864;15.216;2022-11-15T06:03:54;8.30;99.90
1678;DHT22;6034;46.864;15.216;2022-11-15T06:06:21;8.30;99.90
1678;DHT22;6034;46.864;15.216;2022-11-15T06:08:48;8.30;99.90
1678;DHT22;6034;46.864;15.216;2022-11-15T06:11:15;8.30;99.90
1678;DHT22;6034;46.864;15.216;2022-11-15T06:13:42;8.30;99.90
1678;DHT22;6034;46.864;15.216;2022-11-15T06:16:13;8.20;99.90
1678;DHT22;6034;46.864;15.216;2022-11-15T06:18:41;8.30;99.90
1678;DHT22;6034;46.864;15.216;2022-11-15T06:21:08;8.20;99.90
1678;DHT22;6034;46.864;15.216;2022-11-15T06:23:35;8.20;99.90
1678;DHT22;6034;46.864;15.216;2022-11-15T06:26:02;8.20;99.90
1678;DHT22;6034;46.864;15.216;2022-11-15T06:28:30;8.30;99.90
1678;DHT22;6034;46.864;15.216;2022-11-15T06:31:01;8.30;99.90
1678;DHT22;6034;46.864;15.216;2022-11-15T06:33:28;8.30;99.90
1678;DHT22;6034;46.864;15.216;2022-11-15T06:35:56;8.30;99.90
1678;DHT22;6034;46.864;15.216;2022-11-15T06:38:26;8.10;99.90
1678;DHT22;6034;46.864;15.216;2022-11-15T06:40:53;8.20;99.90
1678;DHT22;6034;46.864;15.216;2022-11-15T06:43:20;8.10;99.90
1678;DHT22;6034;46.864;15.216;2022-11-15T06:45:47;8.20;99.90
1678;DHT22;6034;46.864;15.216;2022-11-15T06:48:14;8.20;99.90
1678;DHT22;6034;46.864;15.216;2022-11-15T06:50:41;8.30;99.90
1678;DHT22;6034;46.864;15.216;2022-11-15T06:53:09;8.30;99.90
1678;DHT22;6034;46.864;15.216;2022-11-15T06:55:36;8.20;99.90
1678;DHT22;6034;46.864;15.216;2022-11-15T06:58:03;8.30;99.90
1678;DHT22;6034;46.864;15.216;2022-11-15T07:00:30;8.40;99.90
1678;DHT22;6034;46.864;15.216;2022-11-15T07:02:59;8.40;99.90
1678;DHT22;6034;46.864;15.216;2022-11-15T07:05:26;8.40;99.90
1678;DHT22;6034;46.864;15.216;2022-11-15T07:07:53;8.30;99.90
1678;DHT22;6034;46.864;15.216;2022-11-15T07:10:22;8.40;99.90
1678;DHT22;6034;46.864;15.216;2022-11-15T07:12:50;8.40;99.90
1678;DHT22;6034;46.864;15.216;2022-11-15T07:15:17;8.40;99.90
1678;DHT22;6034;46.864;15.216;2022-11-15T07:17:44;8.40;99.90
1678;DHT22;6034;46.864;15.216;2022-11-15T07:20:12;8.30;99.90
1678;DHT22;6034;46.864;15.216;2022-11-15T07:22:40;8.30;99.90
1678;DHT22;6034;46.864;15.216;2022-11-15T07:25:07;8.40;99.90
1678;DHT22;6034;46.864;15.216;2022-11-15T07:27:35;8.40;99.90
1678;DHT22;6034;46.864;15.216;2022-11-15T07:32:29;8.30;99.90
1678;DHT22;6034;46.864;15.216;2022-11-15T07:34:56;8.20;99.90
1678;DHT22;6034;46.864;15.216;2022-11-15T07:37:23;8.30;99.90
1678;DHT22;6034;46.864;15.216;2022-11-15T07:39:50;8.00;99.90
1678;DHT22;6034;46.864;15.216;2022-11-15T07:42:17;8.10;99.90
1678;DHT22;6034;46.864;15.216;2022-11-15T07:45:03;7.90;99.90
1678;DHT22;6034;46.864;15.216;2022-11-15T07:47:30;8.00;99.90
1678;DHT22;6034;46.864;15.216;2022-11-15T07:49:57;7.80;99.90
1678;DHT22;6034;46.864;15.216;2022-11-15T07:52:24;7.80;99.90
1678;DHT22;6034;46.864;15.216;2022-11-15T07:54:51;8.00;99.90
1678;DHT22;6034;46.864;15.216;2022-11-15T07:57:18;8.00;99.90
1678;DHT22;6034;46.864;15.216;2022-11-15T07:59:44;7.90;99.90
1678;DHT22;6034;46.864;15.216;2022-11-15T08:02:13;7.90;99.90
1678;DHT22;6034;46.864;15.216;2022-11-15T08:04:42;7.90;99.90
1678;DHT22;6034;46.864;15.216;2022-11-15T08:07:09;7.90;99.90
1678;DHT22;6034;46.864;15.216;2022-11-15T08:09:36;7.80;99.90
1678;DHT22;6034;46.864;15.216;2022-11-15T08:12:03;7.60;99.90
1678;DHT22;6034;46.864;15.216;2022-11-15T08:14:30;7.80;99.90
1678;DHT22;6034;46.864;15.216;2022-11-15T08:16:57;7.70;99.90
1678;DHT22;6034;46.864;15.216;2022-11-15T08:19:25;7.90;99.90
1678;DHT22;6034;46.864;15.216;2022-11-15T08:21:52;8.00;99.90
1678;DHT22;6034;46.864;15.216;2022-11-15T08:24:19;7.90;99.90
1678;DHT22;6034;46.864;15.216;2022-11-15T08:26:48;7.90;99.90
1678;DHT22;6034;46.864;15.216;2022-11-15T08:29:16;8.00;99.90
1678;DHT22;6034;46.864;15.216;2022-11-15T08:31:43;7.90;99.90
1678;DHT22;6034;46.864;15.216;2022-11-15T08:34:09;8.00;99.90
1678;DHT22;6034;46.864;15.216;2022-11-15T08:36:38;8.00;99.90
1678;DHT22;6034;46.864;15.216;2022-11-15T08:39:04;8.10;99.90
1678;DHT22;6034;46.864;15.216;2022-11-15T08:41:32;8.10;99.90
1678;DHT22;6034;46.864;15.216;2022-11-15T08:44:00;8.20;99.90
1678;DHT22;6034;46.864;15.216;2022-11-15T08:46:27;8.30;99.90
1678;DHT22;6034;46.864;15.216;2022-11-15T08:48:54;8.30;99.90
1678;DHT22;6034;46.864;15.216;2022-11-15T08:51:21;8.30;99.90
1678;DHT22;6034;46.864;15.216;2022-11-15T08:53:50;8.20;99.90
1678;DHT22;6034;46.864;15.216;2022-11-15T08:56:17;8.20;99.90
1678;DHT22;6034;46.864;15.216;2022-11-15T08:58:43;8.30;99.90
1678;DHT22;6034;46.864;15.216;2022-11-15T09:01:16;8.20;99.90
1678;DHT22;6034;46.864;15.216;2022-11-15T09:03:43;8.30;99.90
1678;DHT22;6034;46.864;15.216;2022-11-15T09:06:10;8.30;99.90
1678;DHT22;6034;46.864;15.216;2022-11-15T09:08:37;8.20;99.90
1678;DHT22;6034;46.864;15.216;2022-11-15T09:11:06;8.20;99.90
1678;DHT22;6034;46.864;15.216;2022-11-15T09:13:34;8.20;99.90
1678;DHT22;6034;46.864;15.216;2022-11-15T09:16:02;8.10;99.90
1678;DHT22;6034;46.864;15.216;2022-11-15T09:18:29;8.20;99.90
1678;DHT22;6034;46.864;15.216;2022-11-15T09:20:56;8.30;99.90
1678;DHT22;6034;46.864;15.216;2022-11-15T09:23:23;8.30;99.90
1678;DHT22;6034;46.864;15.216;2022-11-15T09:25:50;8.30;99.90
1678;DHT22;6034;46.864;15.216;2022-11-15T09:28:19;8.30;99.90
1678;DHT22;6034;46.864;15.216;2022-11-15T09:30:46;8.30;99.90
1678;DHT22;6034;46.864;15.216;2022-11-15T09:33:12;8.20;99.90
1678;DHT22;6034;46.864;15.216;2022-11-15T09:35:39;8.40;99.90
1678;DHT22;6034;46.864;15.216;2022-11-15T09:38:07;8.50;99.90
1678;DHT22;6034;46.864;15.216;2022-11-15T09:40:35;8.40;99.90
1678;DHT22;6034;46.864;15.216;2022-11-15T09:43:09;8.30;99.90
1678;DHT22;6034;46.864;15.216;2022-11-15T09:45:43;8.50;99.90
1678;DHT22;6034;46.864;15.216;2022-11-15T09:48:22;8.60;99.90
1678;DHT22;6034;46.864;15.216;2022-11-15T09:50:51;8.50;99.90
1678;DHT22;6034;46.864;15.216;2022-11-15T09:53:22;8.70;99.90
1678;DHT22;6034;46.864;15.216;2022-11-15T09:55:50;8.70;99.90
1678;DHT22;6034;46.864;15.216;2022-11-15T09:58:22;8.70;99.90
1678;DHT22;6034;46.864;15.216;2022-11-15T10:00:52;8.70;99.90
1678;DHT22;6034;46.864;15.216;2022-11-15T10:03:23;8.70;99.90
1678;DHT22;6034;46.864;15.216;2022-11-15T10:05:52;8.70;99.90
1678;DHT22;6034;46.864;15.216;2022-11-15T10:11:06;8.60;99.90
1678;DHT22;6034;46.864;15.216;2022-11-15T10:13:34;8.80;99.90
1678;DHT22;6034;46.864;15.216;2022-11-15T10:16:04;8.80;99.90
1678;DHT22;6034;46.864;15.216;2022-11-15T10:18:35;8.90;99.90
1678;DHT22;6034;46.864;15.216;2022-11-15T10:21:10;8.80;99.90
1678;DHT22;6034;46.864;15.216;2022-11-15T10:23:39;8.60;99.90
1678;DHT22;6034;46.864;15.216;2022-11-15T10:26:07;8.60;99.90
1678;DHT22;6034;46.864;15.216;2022-11-15T10:28:34;8.30;99.90
1678;DHT22;6034;46.864;15.216;2022-11-15T10:31:11;8.50;99.90
1678;DHT22;6034;46.864;15.216;2022-11-15T10:33:46;8.70;99.90
1678;DHT22;6034;46.864;15.216;2022-11-15T10:36:14;8.80;99.90
1678;DHT22;6034;46.864;15.216;2022-11-15T10:38:50;8.90;99.90
1678;DHT22;6034;46.864;15.216;2022-11-15T10:41:19;9.00;99.90
1678;DHT22;6034;46.864;15.216;2022-11-15T10:43:46;9.00;99.90
1678;DHT22;6034;46.864;15.216;2022-11-15T10:46:29;8.80;99.90
1678;DHT22;6034;46.864;15.216;2022-11-15T10:49:01;8.80;99.90
1678;DHT22;6034;46.864;15.216;2022-11-15T10:51:40;8.70;99.90
1678;DHT22;6034;46.864;15.216;2022-11-15T10:54:08;8.70;99.90
1678;DHT22;6034;46.864;15.216;2022-11-15T10:56:36;8.70;99.90
1678;DHT22;6034;46.864;15.216;2022-11-15T10:59:03;8.80;99.90
1678;DHT22;6034;46.864;15.216;2022-11-15T11:01:31;8.90;99.90
1678;DHT22;6034;46.864;15.216;2022-11-15T11:04:11;9.00;99.90
1678;DHT22;6034;46.864;15.216;2022-11-15T11:06:45;8.80;99.90
1678;DHT22;6034;46.864;15.216;2022-11-15T11:09:20;8.80;99.90
1678;DHT22;6034;46.864;15.216;2022-11-15T11:11:49;8.80;99.90
1678;DHT22;6034;46.864;15.216;2022-11-15T11:14:19;8.50;99.90
1678;DHT22;6034;46.864;15.216;2022-11-15T11:16:49;8.80;99.90
1678;DHT22;6034;46.864;15.216;2022-11-15T11:22:00;9.00;99.90
1678;DHT22;6034;46.864;15.216;2022-11-15T11:24:30;9.10;99.90
1678;DHT22;6034;46.864;15.216;2022-11-15T11:27:07;9.10;99.90
1678;DHT22;6034;46.864;15.216;2022-11-15T11:29:41;9.10;99.90
1678;DHT22;6034;46.864;15.216;2022-11-15T11:32:17;9.10;99.90
1678;DHT22;6034;46.864;15.216;2022-11-15T11:34:49;9.00;99.90
1678;DHT22;6034;46.864;15.216;2022-11-15T11:37:20;9.00;99.90
1678;DHT22;6034;46.864;15.216;2022-11-15T11:39:53;8.90;99.90
1678;DHT22;6034;46.864;15.216;2022-11-15T11:42:26;9.00;99.90
1678;DHT22;6034;46.864;15.216;2022-11-15T11:44:59;9.10;99.90
1678;DHT22;6034;46.864;15.216;2022-11-15T11:47:31;9.20;99.90
1678;DHT22;6034;46.864;15.216;2022-11-15T11:50:00;9.20;99.90
1678;DHT22;6034;46.864;15.216;2022-11-15T11:52:30;9.20;99.90
1678;DHT22;6034;46.864;15.216;2022-11-15T11:54:59;9.10;99.90
1678;DHT22;6034;46.864;15.216;2022-11-15T11:57:33;9.00;99.90
1678;DHT22;6034;46.864;15.216;2022-11-15T12:00:02;8.80;99.90
1678;DHT22;6034;46.864;15.216;2022-11-15T12:02:31;9.00;99.90
1678;DHT22;6034;46.864;15.216;2022-11-15T12:05:03;9.00;99.90
1678;DHT22;6034;46.864;15.216;2022-11-15T12:07:32;9.00;99.90
1678;DHT22;6034;46.864;15.216;2022-11-15T12:12:29;9.10;99.90
1678;DHT22;6034;46.864;15.216;2022-11-15T12:15:00;9.10;99.90
1678;DHT22;6034;46.864;15.216;2022-11-15T12:17:28;9.10;99.90
1678;DHT22;6034;46.864;15.216;2022-11-15T12:19:58;9.10;99.90
1678;DHT22;6034;46.864;15.216;2022-11-15T12:22:28;9.20;99.90
1678;DHT22;6034;46.864;15.216;2022-11-15T12:25:00;9.20;99.90
1678;DHT22;6034;46.864;15.216;2022-11-15T12:27:31;9.30;99.90
1678;DHT22;6034;46.864;15.216;2022-11-15T12:30:02;9.40;99.90
1678;DHT22;6034;46.864;15.216;2022-11-15T12:32:31;9.40;99.90
1678;DHT22;6034;46.864;15.216;2022-11-15T12:35:00;9.30;99.90
1678;DHT22;6034;46.864;15.216;2022-11-15T12:40:27;8.70;99.90
1678;DHT22;6034;46.864;15.216;2022-11-15T12:43:03;8.70;99.90
1678;DHT22;6034;46.864;15.216;2022-11-15T12:45:31;8.70;99.90
1678;DHT22;6034;46.864;15.216;2022-11-15T12:48:44;8.80;99.90
1678;DHT22;6034;46.864;15.216;2022-11-15T12:51:00;8.90;99.90
1678;DHT22;6034;46.864;15.216;2022-11-15T12:53:27;9.00;99.90
1678;DHT22;6034;46.864;15.216;2022-11-15T12:58:41;8.80;99.90
1678;DHT22;6034;46.864;15.216;2022-11-15T13:01:08;8.60;99.90
1678;DHT22;6034;46.864;15.216;2022-11-15T13:03:36;8.60;99.90
1678;DHT22;6034;46.864;15.216;2022-11-15T13:06:38;8.50;99.90
1678;DHT22;6034;46.864;15.216;2022-11-15T13:11:48;8.60;99.90
1678;DHT22;6034;46.864;15.216;2022-11-15T13:17:02;8.60;99.90
1678;DHT22;6034;46.864;15.216;2022-11-15T13:19:29;8.70;99.90
1678;DHT22;6034;46.864;15.216;2022-11-15T13:21:57;8.50;99.90
1678;DHT22;6034;46.864;15.216;2022-11-15T13:24:41;8.40;99.90
1678;DHT22;6034;46.864;15.216;2022-11-15T13:27:10;8.40;99.90
1678;DHT22;6034;46.864;15.216;2022-11-15T13:29:42;8.50;99.90
1678;DHT22;6034;46.864;15.216;2022-11-15T13:32:10;8.20;99.90
1678;DHT22;6034;46.864;15.216;2022-11-15T13:34:38;8.40;99.90
1678;DHT22;6034;46.864;15.216;2022-11-15T13:37:13;8.30;99.90
1678;DHT22;6034;46.864;15.216;2022-11-15T13:39:55;8.50;99.90
1678;DHT22;6034;46.864;15.216;2022-11-15T13:42:36;8.70;99.90
1678;DHT22;6034;46.864;15.216;2022-11-15T13:45:03;8.80;99.90
1678;DHT22;6034;46.864;15.216;2022-11-15T13:47:31;8.80;99.90
1678;DHT22;6034;46.864;15.216;2022-11-15T13:49:58;9.00;99.90
1678;DHT22;6034;46.864;15.216;2022-11-15T13:52:28;9.10;99.90
1678;DHT22;6034;46.864;15.216;2022-11-15T13:54:59;9.00;99.90
1678;DHT22;6034;46.864;15.216;2022-11-15T13:57:28;8.80;99.90
1678;DHT22;6034;46.864;15.216;2022-11-15T13:59:56;8.90;99.90
1678;DHT22;6034;46.864;15.216;2022-11-15T14:02:25;8.90;99.90
1678;DHT22;6034;46.864;15.216;2022-11-15T14:04:53;8.90;99.90
1678;DHT22;6034;46.864;15.216;2022-11-15T14:07:22;8.80;99.90
1678;DHT22;6034;46.864;15.216;2022-11-15T14:09:51;8.90;99.90
1678;DHT22;6034;46.864;15.216;2022-11-15T14:12:25;8.90;99.90
1678;DHT22;6034;46.864;15.216;2022-11-15T14:14:52;9.10;99.90
1678;DHT22;6034;46.864;15.216;2022-11-15T14:17:21;9.00;99.90
1678;DHT22;6034;46.864;15.216;2022-11-15T14:19:59;9.00;99.90
1678;DHT22;6034;46.864;15.216;2022-11-15T14:22:26;8.90;99.90
1678;DHT22;6034;46.864;15.216;2022-11-15T14:27:41;9.20;99.90
1678;DHT22;6034;46.864;15.216;2022-11-15T14:30:12;9.00;99.90
1678;DHT22;6034;46.864;15.216;2022-11-15T14:32:41;9.00;99.90
1678;DHT22;6034;46.864;15.216;2022-11-15T14:35:12;9.00;99.90
1678;DHT22;6034;46.864;15.216;2022-11-15T14:37:39;9.00;99.90
1678;DHT22;6034;46.864;15.216;2022-11-15T14:40:06;9.10;99.90
1678;DHT22;6034;46.864;15.216;2022-11-15T14:42:35;9.10;99.90
1678;DHT22;6034;46.864;15.216;2022-11-15T14:45:04;9.10;99.90
1678;DHT22;6034;46.864;15.216;2022-11-15T14:47:34;9.10;99.90
1678;DHT22;6034;46.864;15.216;2022-11-15T14:50:01;9.20;99.90
1678;DHT22;6034;46.864;15.216;2022-11-15T14:52:29;9.20;99.90
1678;DHT22;6034;46.864;15.216;2022-11-15T14:54:59;9.10;99.90
1678;DHT22;6034;46.864;15.216;2022-11-15T14:57:26;9.20;99.90
1678;DHT22;6034;46.864;15.216;2022-11-15T14:59:53;9.20;99.90
1678;DHT22;6034;46.864;15.216;2022-11-15T15:02:22;9.30;99.90
1678;DHT22;6034;46.864;15.216;2022-11-15T15:04:51;9.20;99.90
1678;DHT22;6034;46.864;15.216;2022-11-15T15:07:18;9.10;99.90
1678;DHT22;6034;46.864;15.216;2022-11-15T15:09:45;9.20;99.90
1678;DHT22;6034;46.864;15.216;2022-11-15T15:12:14;9.20;99.90
1678;DHT22;6034;46.864;15.216;2022-11-15T15:14:42;9.10;99.90
1678;DHT22;6034;46.864;15.216;2022-11-15T15:17:09;9.10;99.90
1678;DHT22;6034;46.864;15.216;2022-11-15T15:19:38;9.10;99.90
1678;DHT22;6034;46.864;15.216;2022-11-15T15:22:05;9.00;99.90
1678;DHT22;6034;46.864;15.216;2022-11-15T15:24:32;9.00;99.90
1678;DHT22;6034;46.864;15.216;2022-11-15T15:26:59;8.90;99.90
1678;DHT22;6034;46.864;15.216;2022-11-15T15:29:26;8.90;99.90
1678;DHT22;6034;46.864;15.216;2022-11-15T15:31:53;8.90;99.90
1678;DHT22;6034;46.864;15.216;2022-11-15T15:34:20;8.90;99.90
1678;DHT22;6034;46.864;15.216;2022-11-15T15:36:49;8.80;99.90
1678;DHT22;6034;46.864;15.216;2022-11-15T15:39:15;8.90;99.90
1678;DHT22;6034;46.864;15.216;2022-11-15T15:41:42;9.00;99.90
1678;DHT22;6034;46.864;15.216;2022-11-15T15:44:10;9.00;99.90
1678;DHT22;6034;46.864;15.216;2022-11-15T15:46:37;9.10;99.90
1678;DHT22;6034;46.864;15.216;2022-11-15T15:49:04;9.00;99.90
1678;DHT22;6034;46.864;15.216;2022-11-15T15:51:31;8.90;99.90
1678;DHT22;6034;46.864;15.216;2022-11-15T15:53:59;8.90;99.90
1678;DHT22;6034;46.864;15.216;2022-11-15T15:56:26;8.70;99.90
1678;DHT22;6034;46.864;15.216;2022-11-15T15:58:55;8.80;99.90
1678;DHT22;6034;46.864;15.216;2022-11-15T16:03:50;8.80;99.90
1678;DHT22;6034;46.864;15.216;2022-11-15T16:06:26;8.90;99.90
1678;DHT22;6034;46.864;15.216;2022-11-15T16:09:00;8.90;99.90
1678;DHT22;6034;46.864;15.216;2022-11-15T16:11:27;8.70;99.90
1678;DHT22;6034;46.864;15.216;2022-11-15T16:13:54;8.80;99.90
1678;DHT22;6034;46.864;15.216;2022-11-15T16:16:21;8.80;99.90
1678;DHT22;6034;46.864;15.216;2022-11-15T16:18:48;8.90;99.90
1678;DHT22;6034;46.864;15.216;2022-11-15T16:21:15;8.60;99.90
1678;DHT22;6034;46.864;15.216;2022-11-15T16:23:41;8.60;99.90
1678;DHT22;6034;46.864;15.216;2022-11-15T16:26:14;8.80;99.90
1678;DHT22;6034;46.864;15.216;2022-11-15T16:28:41;8.80;99.90
1678;DHT22;6034;46.864;15.216;2022-11-15T16:31:08;8.90;99.90
1678;DHT22;6034;46.864;15.216;2022-11-15T16:33:36;8.60;99.90
1678;DHT22;6034;46.864;15.216;2022-11-15T16:36:03;8.60;99.90
1678;DHT22;6034;46.864;15.216;2022-11-15T16:38:31;8.70;99.90
1678;DHT22;6034;46.864;15.216;2022-11-15T16:40:58;8.50;99.90
1678;DHT22;6034;46.864;15.216;2022-11-15T16:43:26;8.50;99.90
1678;DHT22;6034;46.864;15.216;2022-11-15T16:45:53;8.30;99.90
1678;DHT22;6034;46.864;15.216;2022-11-15T16:48:22;8.50;99.90
1678;DHT22;6034;46.864;15.216;2022-11-15T16:50:49;8.60;99.90
1678;DHT22;6034;46.864;15.216;2022-11-15T16:53:16;8.50;99.90
1678;DHT22;6034;46.864;15.216;2022-11-15T16:55:43;8.40;99.90
1678;DHT22;6034;46.864;15.216;2022-11-15T16:58:10;8.40;99.90
1678;DHT22;6034;46.864;15.216;2022-11-15T17:00:39;8.60;99.90
1678;DHT22;6034;46.864;15.216;2022-11-15T17:03:05;8.60;99.90
1678;DHT22;6034;46.864;15.216;2022-11-15T17:05:32;8.70;99.90
1678;DHT22;6034;46.864;15.216;2022-11-15T17:07:59;8.80;99.90
1678;DHT22;6034;46.864;15.216;2022-11-15T17:10:26;8.70;99.90
1678;DHT22;6034;46.864;15.216;2022-11-15T17:12:54;8.70;99.90
1678;DHT22;6034;46.864;15.216;2022-11-15T17:15:21;8.70;99.90
1678;DHT22;6034;46.864;15.216;2022-11-15T17:17:51;8.70;99.90
1678;DHT22;6034;46.864;15.216;2022-11-15T17:20:19;8.50;99.90
1678;DHT22;6034;46.864;15.216;2022-11-15T17:22:46;8.50;99.90
1678;DHT22;6034;46.864;15.216;2022-11-15T17:25:13;8.60;99.90
1678;DHT22;6034;46.864;15.216;2022-11-15T17:27:40;8.50;99.90
1678;DHT22;6034;46.864;15.216;2022-11-15T17:30:09;8.70;99.90
1678;DHT22;6034;46.864;15.216;2022-11-15T17:32:37;8.70;99.90
1678;DHT22;6034;46.864;15.216;2022-11-15T17:35:06;8.60;99.90
1678;DHT22;6034;46.864;15.216;2022-11-15T17:37:33;8.30;99.90
1678;DHT22;6034;46.864;15.216;2022-11-15T17:40:00;8.30;99.90
1678;DHT22;6034;46.864;15.216;2022-11-15T17:42:27;8.40;99.90
1678;DHT22;6034;46.864;15.216;2022-11-15T17:44:54;8.50;99.90
1678;DHT22;6034;46.864;15.216;2022-11-15T17:47:21;8.60;99.90
1678;DHT22;6034;46.864;15.216;2022-11-15T17:49:48;8.70;99.90
1678;DHT22;6034;46.864;15.216;2022-11-15T17:52:16;8.70;99.90
1678;DHT22;6034;46.864;15.216;2022-11-15T17:54:44;8.60;99.90
1678;DHT22;6034;46.864;15.216;2022-11-15T17:57:11;8.60;99.90
1678;DHT22;6034;46.864;15.216;2022-11-15T17:59:39;8.70;99.90
1678;DHT22;6034;46.864;15.216;2022-11-15T18:02:07;8.70;99.90
1678;DHT22;6034;46.864;15.216;2022-11-15T18:04:34;8.50;99.90
1678;DHT22;6034;46.864;15.216;2022-11-15T18:07:01;8.40;99.90
1678;DHT22;6034;46.864;15.216;2022-11-15T18:09:29;8.60;99.90
1678;DHT22;6034;46.864;15.216;2022-11-15T18:11:56;8.40;99.90
1678;DHT22;6034;46.864;15.216;2022-11-15T18:14:23;8.20;99.90
1678;DHT22;6034;46.864;15.216;2022-11-15T18:16:51;8.20;99.90
1678;DHT22;6034;46.864;15.216;2022-11-15T18:19:19;8.30;99.90
1678;DHT22;6034;46.864;15.216;2022-11-15T18:21:46;8.40;99.90
1678;DHT22;6034;46.864;15.216;2022-11-15T18:24:23;8.50;99.90
1678;DHT22;6034;46.864;15.216;2022-11-15T18:26:52;8.60;99.90
1678;DHT22;6034;46.864;15.216;2022-11-15T18:29:19;8.60;99.90
1678;DHT22;6034;46.864;15.216;2022-11-15T18:31:49;8.60;99.90
1678;DHT22;6034;46.864;15.216;2022-11-15T18:34:19;8.50;99.90
1678;DHT22;6034;46.864;15.216;2022-11-15T18:36:47;8.60;99.90
1678;DHT22;6034;46.864;15.216;2022-11-15T18:39:14;8.60;99.90
1678;DHT22;6034;46.864;15.216;2022-11-15T18:41:41;8.50;99.90
1678;DHT22;6034;46.864;15.216;2022-11-15T18:44:10;8.60;99.90
1678;DHT22;6034;46.864;15.216;2022-11-15T18:46:37;8.60;99.90
1678;DHT22;6034;46.864;15.216;2022-11-15T18:49:04;8.60;99.90
1678;DHT22;6034;46.864;15.216;2022-11-15T18:51:33;8.70;99.90
1678;DHT22;6034;46.864;15.216;2022-11-15T18:54:00;8.70;99.90
1678;DHT22;6034;46.864;15.216;2022-11-15T18:56:28;8.80;99.90
1678;DHT22;6034;46.864;15.216;2022-11-15T18:58:56;8.80;99.90
1678;DHT22;6034;46.864;15.216;2022-11-15T19:01:25;8.70;99.90
1678;DHT22;6034;46.864;15.216;2022-11-15T19:03:53;8.80;99.90
1678;DHT22;6034;46.864;15.216;2022-11-15T19:06:20;8.80;99.90
1678;DHT22;6034;46.864;15.216;2022-11-15T19:08:48;8.80;99.90
1678;DHT22;6034;46.864;15.216;2022-11-15T19:11:16;8.80;99.90
1678;DHT22;6034;46.864;15.216;2022-11-15T19:13:43;8.80;99.90
1678;DHT22;6034;46.864;15.216;2022-11-15T19:16:11;8.80;99.90
1678;DHT22;6034;46.864;15.216;2022-11-15T19:18:41;8.80;99.90
1678;DHT22;6034;46.864;15.216;2022-11-15T19:21:08;8.90;99.90
1678;DHT22;6034;46.864;15.216;2022-11-15T19:23:36;8.90;99.90
1678;DHT22;6034;46.864;15.216;2022-11-15T19:26:04;8.90;99.90
1678;DHT22;6034;46.864;15.216;2022-11-15T19:28:31;8.90;99.90
1678;DHT22;6034;46.864;15.216;2022-11-15T19:31:04;8.90;99.90
1678;DHT22;6034;46.864;15.216;2022-11-15T19:33:32;8.90;99.90
1678;DHT22;6034;46.864;15.216;2022-11-15T19:36:01;8.90;99.90
1678;DHT22;6034;46.864;15.216;2022-11-15T19:38:29;8.80;99.90
1678;DHT22;6034;46.864;15.216;2022-11-15T19:40:56;8.80;99.90
1678;DHT22;6034;46.864;15.216;2022-11-15T19:43:23;8.80;99.90
1678;DHT22;6034;46.864;15.216;2022-11-15T19:45:51;8.80;99.90
1678;DHT22;6034;46.864;15.216;2022-11-15T19:48:18;8.90;99.90
1678;DHT22;6034;46.864;15.216;2022-11-15T19:50:45;8.80;99.90
1678;DHT22;6034;46.864;15.216;2022-11-15T19:53:13;8.70;99.90
1678;DHT22;6034;46.864;15.216;2022-11-15T19:55:40;8.80;99.90
1678;DHT22;6034;46.864;15.216;2022-11-15T19:58:07;8.80;99.90
1678;DHT22;6034;46.864;15.216;2022-11-15T20:00:34;8.80;99.90
1678;DHT22;6034;46.864;15.216;2022-11-15T20:03:01;8.80;99.90
1678;DHT22;6034;46.864;15.216;2022-11-15T20:05:28;8.80;99.90
1678;DHT22;6034;46.864;15.216;2022-11-15T20:07:55;8.70;99.90
1678;DHT22;6034;46.864;15.216;2022-11-15T20:10:23;8.70;99.90
1678;DHT22;6034;46.864;15.216;2022-11-15T20:12:50;8.80;99.90
1678;DHT22;6034;46.864;15.216;2022-11-15T20:15:18;8.80;99.90
1678;DHT22;6034;46.864;15.216;2022-11-15T20:17:46;8.80;99.90
1678;DHT22;6034;46.864;15.216;2022-11-15T20:20:13;8.80;99.90
1678;DHT22;6034;46.864;15.216;2022-11-15T20:22:40;8.80;99.90
1678;DHT22;6034;46.864;15.216;2022-11-15T20:25:07;8.80;99.90
1678;DHT22;6034;46.864;15.216;2022-11-15T20:27:36;8.90;99.90
1678;DHT22;6034;46.864;15.216;2022-11-15T20:30:03;8.80;99.90
1678;DHT22;6034;46.864;15.216;2022-11-15T20:32:31;8.80;99.90
1678;DHT22;6034;46.864;15.216;2022-11-15T20:34:58;8.80;99.90
1678;DHT22;6034;46.864;15.216;2022-11-15T20:37:25;8.70;99.90
1678;DHT22;6034;46.864;15.216;2022-11-15T20:39:52;8.80;99.90
1678;DHT22;6034;46.864;15.216;2022-11-15T20:42:19;8.80;99.90
1678;DHT22;6034;46.864;15.216;2022-11-15T20:44:47;8.80;99.90
1678;DHT22;6034;46.864;15.216;2022-11-15T20:47:14;8.70;99.90
1678;DHT22;6034;46.864;15.216;2022-11-15T20:49:41;8.80;99.90
1678;DHT22;6034;46.864;15.216;2022-11-15T20:52:08;8.80;99.90
1678;DHT22;6034;46.864;15.216;2022-11-15T20:54:35;8.80;99.90
1678;DHT22;6034;46.864;15.216;2022-11-15T20:57:02;8.70;99.90
1678;DHT22;6034;46.864;15.216;2022-11-15T20:59:31;8.70;99.90
1678;DHT22;6034;46.864;15.216;2022-11-15T21:02:00;8.80;99.90
1678;DHT22;6034;46.864;15.216;2022-11-15T21:04:28;8.80;99.90
1678;DHT22;6034;46.864;15.216;2022-11-15T21:06:55;8.80;99.90
1678;DHT22;6034;46.864;15.216;2022-11-15T21:09:22;8.70;99.90
1678;DHT22;6034;46.864;15.216;2022-11-15T21:12:07;8.70;99.90
1678;DHT22;6034;46.864;15.216;2022-11-15T21:14:36;8.70;99.90
1678;DHT22;6034;46.864;15.216;2022-11-15T21:17:05;8.70;99.90
1678;DHT22;6034;46.864;15.216;2022-11-15T21:19:32;8.70;99.90
1678;DHT22;6034;46.864;15.216;2022-11-15T21:21:59;8.70;99.90
1678;DHT22;6034;46.864;15.216;2022-11-15T21:24:27;8.70;99.90
1678;DHT22;6034;46.864;15.216;2022-11-15T21:26:54;8.70;99.90
1678;DHT22;6034;46.864;15.216;2022-11-15T21:29:22;8.40;99.90
1678;DHT22;6034;46.864;15.216;2022-11-15T21:31:50;8.60;99.90
1678;DHT22;6034;46.864;15.216;2022-11-15T21:34:19;8.50;99.90
1678;DHT22;6034;46.864;15.216;2022-11-15T21:36:46;8.60;99.90
1678;DHT22;6034;46.864;15.216;2022-11-15T21:39:13;8.70;99.90
1678;DHT22;6034;46.864;15.216;2022-11-15T21:41:40;8.50;99.90
1678;DHT22;6034;46.864;15.216;2022-11-15T21:44:07;8.50;99.90
1678;DHT22;6034;46.864;15.216;2022-11-15T21:46:34;8.40;99.90
1678;DHT22;6034;46.864;15.216;2022-11-15T21:49:01;8.40;99.90
1678;DHT22;6034;46.864;15.216;2022-11-15T21:51:30;8.30;99.90
1678;DHT22;6034;46.864;15.216;2022-11-15T21:53:57;8.20;99.90
1678;DHT22;6034;46.864;15.216;2022-11-15T21:56:25;8.30;99.90
1678;DHT22;6034;46.864;15.216;2022-11-15T21:58:52;8.40;99.90
1678;DHT22;6034;46.864;15.216;2022-11-15T22:01:19;8.40;99.90
1678;DHT22;6034;46.864;15.216;2022-11-15T22:04:03;8.50;99.90
1678;DHT22;6034;46.864;15.216;2022-11-15T22:06:32;8.40;99.90
1678;DHT22;6034;46.864;15.216;2022-11-15T22:08:59;8.30;99.90
1678;DHT22;6034;46.864;15.216;2022-11-15T22:11:26;8.50;99.90
1678;DHT22;6034;46.864;15.216;2022-11-15T22:13:53;8.50;99.90
1678;DHT22;6034;46.864;15.216;2022-11-15T22:16:20;8.50;99.90
1678;DHT22;6034;46.864;15.216;2022-11-15T22:18:47;8.50;99.90
1678;DHT22;6034;46.864;15.216;2022-11-15T22:21:15;8.60;99.90
1678;DHT22;6034;46.864;15.216;2022-11-15T22:23:44;8.60;99.90
1678;DHT22;6034;46.864;15.216;2022-11-15T22:26:14;8.60;99.90
1678;DHT22;6034;46.864;15.216;2022-11-15T22:28:41;8.50;99.90
